If you wish to contribute or participate in the discussions about articles you are invited to join SKYbrary as a registered user

 Actions

Zagreb Airport

From SKYbrary Wiki

LDZA /
Revision as of 16:06, 25 August 2021 by Integration.Manager (talk | contribs)
(diff) ← Older revision | Latest revision (diff) | Newer revision → (diff)
Airport
ICAO: LDZA – IATA: ZAG
Summary
Name Zagreb Airport
Region Europe
Territory Croatia HR.gif
Location Velika Gorica, Zagreb
Serving Zagreb
Elevation 107.594 m <br />353 ft107.594 m <br />
Coordinates 45° 44' 31.31" N, 16° 4' 3.54" E
Runways
Designator Length Width Surface ROPS
5/23 3252 m10,669.291 ft <br /> 45 m147.638 ft <br /> ASP yes/yes


METAR
Observation LDZA 261130Z VRB01KT CAVOK 12/05 Q1023 NOSIG
Station Zagreb / Pleso
Date/Time 26 October 2021 11:30:00
Wind direction °
Wind speed 01 kts
Lowest cloud amount clouds and visibility OK
Temperature 12°C
Dew point 5°C
Humidity 62%
QNH 1023 hPa
Weather condition n/a

International airport serving capital of Croatia.

Climatology

Temperate Marine climate/Oceanic climate (Köppen climate classification Cfb).

Maps

Terrain

Loading map...

Airport Layout

Loading map...


Accidents & Serious Incidents at or in vicinity of LDZA

None on SKYbrary